createdAt,value
2018-10-21T00:00:17.614Z,18.80
2018-10-21T00:01:24.522Z,18.90
2018-10-21T00:02:31.251Z,17.00
2018-10-21T00:03:38.032Z,19.60
2018-10-21T00:04:44.688Z,18.60
2018-10-21T00:05:52.071Z,22.60
2018-10-21T00:06:58.774Z,19.10
2018-10-21T00:08:05.591Z,20.00
2018-10-21T00:09:12.668Z,16.20
2018-10-21T00:10:19.386Z,19.60
2018-10-21T00:11:26.090Z,18.70
2018-10-21T00:12:32.770Z,17.60
2018-10-21T00:13:40.087Z,18.00
2018-10-21T00:14:46.787Z,18.60
2018-10-21T00:15:54.082Z,16.70
2018-10-21T00:17:00.701Z,18.60
2018-10-21T00:18:08.005Z,18.30
2018-10-21T00:20:21.952Z,19.40
2018-10-21T00:21:28.819Z,20.50
2018-10-21T00:22:35.698Z,24.50
2018-10-21T00:23:42.748Z,20.20
2018-10-21T00:24:49.532Z,21.30
2018-10-21T00:25:56.309Z,20.80
2018-10-21T00:27:03.243Z,20.80
2018-10-21T00:28:10.106Z,19.30
2018-10-21T00:29:16.699Z,18.60
2018-10-21T00:30:23.974Z,18.50
2018-10-21T00:31:30.535Z,19.00
2018-10-21T00:32:38.034Z,18.00
2018-10-21T00:33:44.894Z,18.90
2018-10-21T00:34:52.142Z,20.20
2018-10-21T00:35:58.819Z,23.00
2018-10-21T00:37:06.210Z,21.30
2018-10-21T00:38:12.802Z,19.20
2018-10-21T00:39:20.127Z,19.80
2018-10-21T00:40:26.743Z,20.50
2018-10-21T00:41:33.975Z,22.10
2018-10-21T00:42:40.830Z,24.10
2018-10-21T00:43:47.594Z,19.60
2018-10-21T00:44:54.377Z,23.20
2018-10-21T00:46:01.016Z,22.30
2018-10-21T00:47:08.326Z,18.30
2018-10-21T00:48:14.976Z,20.00
2018-10-21T00:49:22.229Z,20.50
2018-10-21T00:50:28.914Z,19.80
2018-10-21T00:51:35.700Z,19.70
2018-10-21T00:52:42.549Z,18.70
2018-10-21T00:53:49.311Z,20.30
2018-10-21T00:54:55.886Z,21.80
2018-10-21T00:56:03.029Z,20.10
2018-10-21T00:57:09.948Z,20.10
2018-10-21T00:58:16.787Z,20.80
2018-10-21T00:59:23.492Z,22.40
2018-10-21T01:00:30.105Z,22.40
2018-10-21T01:01:37.371Z,22.40
2018-10-21T01:02:43.966Z,20.00
2018-10-21T01:03:51.319Z,22.10
2018-10-21T01:04:58.071Z,18.60
2018-10-21T01:06:04.778Z,24.90
2018-10-21T01:07:11.518Z,17.50
2018-10-21T01:08:18.166Z,19.30
2018-10-21T01:09:25.655Z,21.10
2018-10-21T01:10:32.305Z,21.10
2018-10-21T01:11:39.591Z,18.50
2018-10-21T01:12:46.228Z,20.10
2018-10-21T01:13:53.537Z,20.30
2018-10-21T01:15:00.212Z,19.10
2018-10-21T01:16:07.054Z,19.70
2018-10-21T01:17:13.719Z,20.80
2018-10-21T01:18:20.507Z,17.70
2018-10-21T01:19:27.149Z,22.00
2018-10-21T01:20:34.428Z,20.70
2018-10-21T01:21:40.975Z,22.30
2018-10-21T01:22:48.278Z,18.40
2018-10-21T01:23:55.033Z,20.10
2018-10-21T01:25:01.631Z,19.20
2018-10-21T01:26:08.555Z,17.70
2018-10-21T01:27:15.235Z,19.30
2018-10-21T01:28:22.127Z,21.00
2018-10-21T01:29:28.734Z,20.90
2018-10-21T01:30:35.970Z,21.60
2018-10-21T01:31:42.595Z,18.70
2018-10-21T01:32:49.826Z,19.70
2018-10-21T01:33:56.611Z,19.20
2018-10-21T01:35:03.287Z,20.80
2018-10-21T01:36:10.390Z,21.00
2018-10-21T01:37:17.213Z,20.00
2018-10-21T01:38:23.926Z,22.80
2018-10-21T01:39:30.571Z,19.40
2018-10-21T01:40:37.619Z,20.10
2018-10-21T01:41:44.697Z,23.40
2018-10-21T01:42:51.974Z,16.90
2018-10-21T01:43:58.656Z,19.60
2018-10-21T01:45:05.955Z,17.80
2018-10-21T01:46:12.669Z,18.00
2018-10-21T01:47:19.334Z,20.50
2018-10-21T01:48:26.532Z,19.00
2018-10-21T01:49:33.290Z,19.70
2018-10-21T01:50:40.422Z,19.70
2018-10-21T01:51:47.163Z,21.90
2018-10-21T01:52:54.118Z,24.40
2018-10-21T01:54:00.879Z,20.10
2018-10-21T01:55:07.637Z,19.20
2018-10-21T01:56:14.356Z,18.80
2018-10-21T01:57:21.238Z,20.30
2018-10-21T01:58:28.102Z,18.40
2018-10-21T01:59:35.310Z,21.00
2018-10-21T02:00:41.984Z,22.10
2018-10-21T02:01:49.244Z,21.20
2018-10-21T02:02:55.960Z,21.20
2018-10-21T02:04:04.540Z,20.00
2018-10-21T02:05:10.866Z,20.60
2018-10-21T02:06:16.801Z,19.40
2018-10-21T02:07:23.623Z,18.70
2018-10-21T02:08:30.396Z,24.50
2018-10-21T02:09:37.259Z,22.60
2018-10-21T02:10:44.167Z,18.60
2018-10-21T02:11:50.923Z,18.50
2018-10-21T02:12:58.528Z,20.80
2018-10-21T02:14:04.956Z,23.50
2018-10-21T02:15:11.842Z,20.60
2018-10-21T02:16:18.323Z,21.30
2018-10-21T02:17:25.533Z,20.50
2018-10-21T02:18:32.437Z,22.30
2018-10-21T02:19:39.339Z,22.80
2018-10-21T02:20:46.498Z,21.00
2018-10-21T02:21:52.838Z,18.80
2018-10-21T02:22:59.510Z,22.00
2018-10-21T02:24:06.355Z,20.60
2018-10-21T02:25:13.145Z,21.20
2018-10-21T02:26:19.918Z,21.10
2018-10-21T02:27:26.872Z,22.10
2018-10-21T02:28:33.810Z,17.40
2018-10-21T02:29:40.591Z,20.80
2018-10-21T02:30:47.579Z,22.00
2018-10-21T02:31:54.350Z,23.40
2018-10-21T02:33:01.158Z,19.50
2018-10-21T02:34:08.105Z,18.40
2018-10-21T02:35:15.247Z,22.00
2018-10-21T02:36:22.146Z,22.50
2018-10-21T02:37:28.894Z,18.90
2018-10-21T02:38:35.969Z,20.70
2018-10-21T02:39:42.823Z,22.20
2018-10-21T02:40:49.574Z,19.60
2018-10-21T02:41:56.580Z,19.60
2018-10-21T02:43:04.163Z,19.90
2018-10-21T02:44:10.614Z,20.70
2018-10-21T02:45:17.336Z,20.00
2018-10-21T02:46:24.206Z,21.20
2018-10-21T02:47:31.010Z,22.30
2018-10-21T02:48:37.775Z,20.10
2018-10-21T02:49:45.063Z,25.70
2018-10-21T02:50:51.991Z,20.30
2018-10-21T02:51:58.966Z,18.70
2018-10-21T02:53:05.493Z,19.00
2018-10-21T02:54:12.231Z,21.40
2018-10-21T02:55:19.881Z,21.20
2018-10-21T02:56:26.045Z,21.70
2018-10-21T02:57:33.108Z,23.70
2018-10-21T02:58:41.078Z,25.70
2018-10-21T02:59:46.865Z,26.30
2018-10-21T03:00:53.637Z,24.20
2018-10-21T03:02:00.381Z,23.50
2018-10-21T03:03:07.652Z,23.90
2018-10-21T03:04:14.303Z,22.70
2018-10-21T03:05:21.706Z,20.70
2018-10-21T03:06:27.879Z,20.50
2018-10-21T03:07:34.725Z,20.60
2018-10-21T03:08:41.498Z,20.40
2018-10-21T03:09:48.198Z,21.00
2018-10-21T03:10:55.345Z,21.60
2018-10-21T03:12:02.073Z,22.00
2018-10-21T03:13:09.971Z,21.50
2018-10-21T03:14:15.737Z,21.80
2018-10-21T03:15:22.529Z,18.30
2018-10-21T03:16:29.373Z,19.20
2018-10-21T03:17:36.642Z,20.70
2018-10-21T03:18:43.626Z,21.00
2018-10-21T03:19:50.679Z,20.00
2018-10-21T03:20:57.750Z,20.80
2018-10-21T03:23:11.066Z,22.30
2018-10-21T03:24:18.193Z,21.90
2018-10-21T03:25:25.079Z,19.50
2018-10-21T03:26:31.781Z,20.00
2018-10-21T03:27:39.029Z,21.40
2018-10-21T03:28:45.695Z,22.30
2018-10-21T03:29:52.658Z,21.30
2018-10-21T03:30:59.449Z,19.80
2018-10-21T03:32:06.702Z,22.40
2018-10-21T03:33:13.523Z,23.60
2018-10-21T03:34:20.382Z,21.50
2018-10-21T03:35:27.295Z,18.60
2018-10-21T03:36:34.175Z,18.20
2018-10-21T03:37:41.804Z,19.90
2018-10-21T03:38:47.510Z,22.90
2018-10-21T03:39:54.799Z,23.30
2018-10-21T03:41:01.581Z,20.60
2018-10-21T03:42:08.724Z,20.00
2018-10-21T03:43:15.514Z,21.60
2018-10-21T03:44:22.578Z,19.80
2018-10-21T03:45:29.226Z,22.70
2018-10-21T03:46:36.195Z,22.00
2018-10-21T03:47:43.156Z,17.80
2018-10-21T03:48:50.148Z,20.50
2018-10-21T03:49:57.220Z,19.60
2018-10-21T03:51:04.097Z,22.70
2018-10-21T03:52:10.896Z,21.10
2018-10-21T03:53:17.538Z,20.00
2018-10-21T03:54:24.860Z,22.20
2018-10-21T03:55:31.496Z,21.30
2018-10-21T03:56:38.843Z,17.20
2018-10-21T03:57:45.171Z,25.40
2018-10-21T03:58:52.133Z,20.70
2018-10-21T03:59:58.845Z,21.60
2018-10-21T04:01:05.994Z,20.00
2018-10-21T04:02:12.857Z,21.50
2018-10-21T04:03:20.055Z,18.20
2018-10-21T04:04:26.298Z,20.90
2018-10-21T04:05:33.058Z,18.40
2018-10-21T04:06:40.024Z,20.80
2018-10-21T04:07:46.759Z,20.20
2018-10-21T04:08:53.522Z,22.80
2018-10-21T04:10:00.448Z,18.70
2018-10-21T04:11:07.348Z,19.80
2018-10-21T04:12:14.118Z,19.80
2018-10-21T04:13:20.910Z,17.50
2018-10-21T04:14:27.976Z,20.60
2018-10-21T04:15:34.839Z,19.90
2018-10-21T04:16:41.653Z,20.20
2018-10-21T04:17:48.226Z,19.00
2018-10-21T04:18:55.238Z,18.60
2018-10-21T04:20:02.642Z,20.90
2018-10-21T04:21:09.241Z,19.60
2018-10-21T04:22:16.401Z,20.50
2018-10-21T04:23:23.323Z,19.10
2018-10-21T04:24:29.932Z,18.90
2018-10-21T04:25:36.894Z,19.30
2018-10-21T04:26:43.647Z,21.80
2018-10-21T04:27:50.376Z,20.70
2018-10-21T04:28:57.151Z,20.10
2018-10-21T04:30:03.951Z,18.70
2018-10-21T04:31:11.361Z,20.10
2018-10-21T04:32:17.523Z,20.10
2018-10-21T04:33:25.382Z,20.00
2018-10-21T04:34:31.794Z,20.50
2018-10-21T04:35:38.588Z,19.70
2018-10-21T04:36:45.657Z,19.50
2018-10-21T04:37:52.367Z,21.00
2018-10-21T04:40:03.397Z,20.20
2018-10-21T04:41:10.547Z,21.50
2018-10-21T04:42:16.810Z,18.20
2018-10-21T04:43:23.592Z,18.80
2018-10-21T04:44:30.329Z,19.80
2018-10-21T04:45:39.271Z,18.70
2018-10-21T04:46:44.897Z,21.00
2018-10-21T04:47:51.617Z,19.90
2018-10-21T04:48:58.403Z,19.80
2018-10-21T04:50:05.447Z,19.50
2018-10-21T04:51:12.671Z,20.00
2018-10-21T04:52:19.445Z,19.40
2018-10-21T04:53:26.322Z,22.70
2018-10-21T04:54:33.077Z,20.80
2018-10-21T04:55:39.773Z,18.90
2018-10-21T04:56:46.443Z,18.60
2018-10-21T04:57:53.765Z,18.40
2018-10-21T04:59:00.501Z,22.30
2018-10-21T05:00:07.577Z,22.50
2018-10-21T05:01:14.243Z,20.00
2018-10-21T05:02:21.936Z,19.20
2018-10-21T05:03:28.051Z,19.10
2018-10-21T05:04:35.360Z,19.70
2018-10-21T05:05:42.246Z,23.80
2018-10-21T05:06:48.981Z,20.70
2018-10-21T05:07:55.698Z,21.80
2018-10-21T05:09:02.831Z,21.20
2018-10-21T05:10:09.846Z,18.80
2018-10-21T05:11:16.191Z,22.30
2018-10-21T05:12:23.740Z,23.00
2018-10-21T05:13:30.463Z,19.20
2018-10-21T05:14:37.707Z,24.20
2018-10-21T05:15:44.070Z,22.70
2018-10-21T05:16:50.846Z,19.80
2018-10-21T05:17:57.983Z,24.20
2018-10-21T05:19:04.880Z,19.40
2018-10-21T05:20:11.506Z,19.70
2018-10-21T05:21:18.494Z,22.70
2018-10-21T05:22:25.552Z,19.90
2018-10-21T05:23:32.227Z,18.50
2018-10-21T05:24:39.692Z,20.40
2018-10-21T05:25:46.374Z,18.10
2018-10-21T05:26:53.327Z,24.60
2018-10-21T05:27:59.996Z,20.40
2018-10-21T05:29:06.815Z,20.50
2018-10-21T05:30:13.615Z,22.20
2018-10-21T05:31:20.819Z,21.80
2018-10-21T05:32:27.050Z,19.40
2018-10-21T05:33:34.246Z,22.20
2018-10-21T05:34:41.009Z,22.10
2018-10-21T05:35:47.712Z,18.80
2018-10-21T05:36:54.594Z,23.30
2018-10-21T05:38:01.797Z,21.20
2018-10-21T05:39:09.373Z,22.20
2018-10-21T05:40:15.364Z,21.70
2018-10-21T05:41:22.539Z,21.20
2018-10-21T05:42:29.278Z,20.80
2018-10-21T05:43:36.051Z,21.20
2018-10-21T05:44:42.828Z,25.40
2018-10-21T05:45:49.713Z,22.40
2018-10-21T05:46:56.652Z,21.60
2018-10-21T05:48:03.322Z,20.40
2018-10-21T05:49:10.054Z,20.50
2018-10-21T05:50:16.900Z,21.60
2018-10-21T05:51:24.131Z,23.10
2018-10-21T05:52:30.355Z,20.10
2018-10-21T05:53:37.151Z,20.20
2018-10-21T05:54:43.800Z,19.70
2018-10-21T05:55:51.060Z,19.60
2018-10-21T05:56:57.310Z,21.20
2018-10-21T05:58:04.213Z,19.40
2018-10-21T05:59:11.260Z,25.00
2018-10-21T06:00:17.819Z,21.00
2018-10-21T06:01:24.786Z,20.60
2018-10-21T06:02:32.473Z,21.10
2018-10-21T06:03:38.455Z,21.60
2018-10-21T06:04:45.129Z,21.00
2018-10-21T06:05:52.194Z,23.40
2018-10-21T06:06:59.543Z,20.80
2018-10-21T06:08:05.874Z,23.10
2018-10-21T06:09:13.065Z,23.70
2018-10-21T06:10:19.823Z,23.00
2018-10-21T06:11:26.486Z,22.70
2018-10-21T06:12:34.727Z,21.80
2018-10-21T06:13:40.444Z,26.00
2018-10-21T06:14:47.094Z,23.20
2018-10-21T06:15:54.202Z,23.00
2018-10-21T06:17:01.663Z,23.90
2018-10-21T06:18:07.955Z,20.30
2018-10-21T06:19:15.595Z,25.20
2018-10-21T06:20:22.106Z,25.50
2018-10-21T06:21:28.802Z,26.70
2018-10-21T06:22:36.626Z,27.00
2018-10-21T06:23:42.803Z,24.90
2018-10-21T06:24:49.418Z,28.10
2018-10-21T06:25:56.698Z,23.90
2018-10-21T06:27:03.759Z,24.00
2018-10-21T06:28:10.330Z,21.60
2018-10-21T06:29:17.588Z,22.20
2018-10-21T06:30:24.350Z,23.30
2018-10-21T06:31:31.110Z,19.20
2018-10-21T06:32:38.239Z,22.80
2018-10-21T06:33:45.006Z,85.20
2018-10-21T06:34:52.235Z,58.00
2018-10-21T06:35:59.129Z,49.60
2018-10-21T06:37:06.000Z,48.30
2018-10-21T06:38:12.556Z,48.10
2018-10-21T06:39:19.788Z,45.70
2018-10-21T06:40:26.603Z,34.40
2018-10-21T06:41:33.645Z,24.40
2018-10-21T06:42:40.945Z,27.10
2018-10-21T06:43:47.513Z,25.60
2018-10-21T06:44:55.285Z,20.10
2018-10-21T06:46:01.338Z,23.30
2018-10-21T06:47:08.391Z,24.10
2018-10-21T06:48:15.136Z,22.70
2018-10-21T06:49:22.422Z,22.30
2018-10-21T06:50:29.001Z,21.60
2018-10-21T06:51:36.284Z,24.00
2018-10-21T06:52:42.890Z,27.00
2018-10-21T06:53:50.193Z,22.60
2018-10-21T06:54:57.270Z,22.10
2018-10-21T06:56:04.147Z,23.10
2018-10-21T06:57:10.907Z,27.00
2018-10-21T06:58:18.419Z,23.10
2018-10-21T06:59:25.250Z,22.00
2018-10-21T07:00:31.531Z,20.90
2018-10-21T07:01:38.294Z,24.20
2018-10-21T07:02:45.468Z,24.20
2018-10-21T07:03:52.243Z,25.20
2018-10-21T07:04:58.994Z,23.80
2018-10-21T07:06:06.572Z,24.40
2018-10-21T07:07:13.631Z,26.10
2018-10-21T07:08:20.534Z,24.10
2018-10-21T07:09:26.697Z,24.60
2018-10-21T07:10:33.874Z,26.30
2018-10-21T07:11:42.221Z,23.20
2018-10-21T07:12:47.971Z,24.30
2018-10-21T07:13:55.094Z,21.50
2018-10-21T07:15:01.698Z,25.10
2018-10-21T07:16:09.099Z,24.50
2018-10-21T07:17:15.666Z,22.70
2018-10-21T07:18:22.439Z,24.50
2018-10-21T07:19:29.294Z,24.00
2018-10-21T07:20:36.049Z,24.10
2018-10-21T07:21:42.812Z,26.70
2018-10-21T07:22:49.494Z,24.50
2018-10-21T07:23:56.903Z,25.10
2018-10-21T07:25:03.787Z,24.60
2018-10-21T07:26:10.412Z,25.10
2018-10-21T07:27:17.046Z,24.30
2018-10-21T07:28:25.180Z,22.20
2018-10-21T07:29:31.197Z,28.50
2018-10-21T07:30:38.211Z,25.70
2018-10-21T07:31:45.769Z,27.20
2018-10-21T07:32:52.321Z,31.40
2018-10-21T07:33:59.222Z,25.70
2018-10-21T07:35:06.339Z,26.80
2018-10-21T07:36:12.955Z,26.40
2018-10-21T07:37:19.775Z,27.10
2018-10-21T07:38:26.450Z,27.00
2018-10-21T07:39:33.304Z,29.20
2018-10-21T07:40:40.583Z,31.60
2018-10-21T07:41:46.727Z,26.50
2018-10-21T07:42:53.527Z,25.60
2018-10-21T07:44:00.233Z,25.30
2018-10-21T07:45:07.233Z,29.90
2018-10-21T07:46:14.146Z,29.50
2018-10-21T07:47:20.973Z,32.10
2018-10-21T07:48:27.775Z,32.30
2018-10-21T07:49:34.631Z,31.30
2018-10-21T07:50:41.598Z,30.80
2018-10-21T07:51:48.645Z,25.80
2018-10-21T07:52:55.300Z,29.20
2018-10-21T07:54:02.527Z,31.20
2018-10-21T07:55:09.693Z,32.80
2018-10-21T07:56:16.923Z,30.50
2018-10-21T07:57:23.709Z,30.30
2018-10-21T07:58:30.596Z,28.60
2018-10-21T07:59:37.420Z,37.80
2018-10-21T08:00:44.060Z,36.40
2018-10-21T08:01:51.268Z,26.40
2018-10-21T08:02:58.126Z,32.40
2018-10-21T08:04:04.992Z,32.90
2018-10-21T08:05:11.653Z,31.30
2018-10-21T08:06:18.523Z,29.60
2018-10-21T08:07:25.416Z,34.20
2018-10-21T08:08:32.809Z,28.80
2018-10-21T08:09:39.339Z,33.70
2018-10-21T08:10:46.359Z,28.40
2018-10-21T08:11:53.427Z,33.70
2018-10-21T08:13:00.253Z,31.30
2018-10-21T08:14:07.130Z,31.20
2018-10-21T08:15:14.164Z,32.70
2018-10-21T08:16:21.071Z,34.40
2018-10-21T08:17:27.922Z,31.80
2018-10-21T08:18:34.803Z,33.90
2018-10-21T08:19:41.463Z,31.40
2018-10-21T08:20:49.038Z,35.30
2018-10-21T08:21:55.836Z,34.30
2018-10-21T08:23:02.876Z,31.10
2018-10-21T08:24:09.213Z,32.90
2018-10-21T08:25:16.704Z,32.00
2018-10-21T08:26:22.971Z,32.10
2018-10-21T08:27:29.839Z,36.10
2018-10-21T08:28:36.712Z,30.30
2018-10-21T08:29:43.390Z,35.40
2018-10-21T08:30:50.166Z,34.70
2018-10-21T08:31:56.901Z,36.30
2018-10-21T08:33:03.546Z,29.30
2018-10-21T08:34:10.765Z,29.40
2018-10-21T08:35:18.211Z,31.20
2018-10-21T08:36:24.772Z,35.80
2018-10-21T08:37:31.496Z,34.40
2018-10-21T08:38:38.241Z,36.00
2018-10-21T08:39:44.982Z,39.10
2018-10-21T08:40:51.931Z,30.90
2018-10-21T08:41:58.582Z,32.40
2018-10-21T08:43:05.358Z,35.10
2018-10-21T08:44:12.176Z,30.10
2018-10-21T08:45:19.254Z,33.60
2018-10-21T08:46:28.122Z,33.90
2018-10-21T08:47:33.138Z,37.90
2018-10-21T08:48:39.937Z,31.30
2018-10-21T08:49:46.904Z,33.10
2018-10-21T08:50:53.781Z,35.50
2018-10-21T08:52:00.659Z,34.70
2018-10-21T08:53:07.357Z,32.50
2018-10-21T08:54:14.244Z,35.00
2018-10-21T08:55:21.020Z,33.60
2018-10-21T08:56:27.789Z,32.80
2018-10-21T08:57:34.639Z,35.80
2018-10-21T08:58:41.291Z,33.80
2018-10-21T08:59:48.242Z,29.90
2018-10-21T09:00:55.215Z,33.70
2018-10-21T09:02:02.020Z,34.70
2018-10-21T09:03:08.773Z,37.50
2018-10-21T09:04:15.447Z,34.70
2018-10-21T09:05:23.793Z,34.10
2018-10-21T09:06:29.978Z,39.70
2018-10-21T09:07:36.719Z,34.30
2018-10-21T09:08:43.492Z,31.60
2018-10-21T09:09:50.546Z,31.10
2018-10-21T09:10:57.190Z,30.40
2018-10-21T09:12:03.822Z,37.20
2018-10-21T09:13:11.207Z,34.90
2018-10-21T09:14:17.842Z,30.60
2018-10-21T09:15:24.594Z,29.90
2018-10-21T09:16:34.113Z,28.60
2018-10-21T09:17:38.279Z,32.60
2018-10-21T09:18:44.822Z,29.40
2018-10-21T09:19:52.131Z,32.50
2018-10-21T09:20:59.093Z,29.50
2018-10-21T09:22:06.239Z,31.40
2018-10-21T09:23:12.897Z,33.00
2018-10-21T09:24:20.472Z,31.90
2018-10-21T09:25:27.370Z,31.10
2018-10-21T09:26:34.301Z,28.10
2018-10-21T09:27:40.952Z,30.20
2018-10-21T09:28:47.904Z,28.70
2018-10-21T09:29:54.854Z,25.20
2018-10-21T09:31:01.651Z,24.00
2018-10-21T09:32:08.883Z,23.60
2018-10-21T09:33:15.665Z,24.50
2018-10-21T09:34:22.372Z,22.60
2018-10-21T09:35:29.181Z,20.90
2018-10-21T09:36:36.278Z,22.40
2018-10-21T09:37:43.054Z,21.50
2018-10-21T09:38:50.386Z,20.00
2018-10-21T09:39:57.270Z,22.80
2018-10-21T09:41:04.145Z,25.90
2018-10-21T09:42:10.819Z,18.80
2018-10-21T09:43:18.058Z,21.70
2018-10-21T09:44:24.751Z,21.80
2018-10-21T09:45:31.805Z,20.00
2018-10-21T09:46:38.954Z,22.30
2018-10-21T09:47:45.444Z,21.70
2018-10-21T09:48:52.391Z,19.10
2018-10-21T09:49:59.441Z,22.80
2018-10-21T09:51:06.591Z,20.10
2018-10-21T09:52:13.214Z,19.70
2018-10-21T09:53:20.388Z,18.70
2018-10-21T09:54:27.055Z,23.60
2018-10-21T09:55:34.212Z,19.40
2018-10-21T09:56:41.421Z,23.30
2018-10-21T09:57:48.147Z,19.80
2018-10-21T09:58:55.197Z,19.00
2018-10-21T10:00:01.851Z,18.70
2018-10-21T10:01:09.028Z,18.50
2018-10-21T10:02:15.611Z,19.40
2018-10-21T10:03:22.581Z,16.80
2018-10-21T10:04:29.679Z,15.80
2018-10-21T10:05:36.403Z,15.10
2018-10-21T10:06:43.654Z,20.80
2018-10-21T10:07:49.945Z,21.20
2018-10-21T10:08:56.793Z,17.80
2018-10-21T10:10:03.832Z,16.40
2018-10-21T10:11:10.799Z,18.30
2018-10-21T10:12:18.057Z,16.90
2018-10-21T10:13:24.432Z,16.90
2018-10-21T10:14:31.368Z,15.10
2018-10-21T10:15:38.264Z,16.70
2018-10-21T10:16:44.986Z,17.50
2018-10-21T10:17:52.392Z,15.80
2018-10-21T10:18:59.067Z,15.40
2018-10-21T10:20:06.103Z,17.60
2018-10-21T10:21:13.047Z,14.40
2018-10-21T10:22:19.870Z,16.30
2018-10-21T10:23:26.789Z,17.10
2018-10-21T10:24:33.782Z,14.90
2018-10-21T10:25:40.676Z,12.70
2018-10-21T10:26:47.399Z,15.80
2018-10-21T10:27:54.717Z,14.30
2018-10-21T10:29:01.361Z,16.60
2018-10-21T10:30:08.519Z,13.00
2018-10-21T10:31:15.514Z,17.90
2018-10-21T10:32:22.630Z,11.50
2018-10-21T10:33:29.537Z,11.50
2018-10-21T10:34:35.766Z,14.50
2018-10-21T10:35:42.435Z,14.90
2018-10-21T10:36:49.936Z,12.40
2018-10-21T10:37:57.702Z,12.10
2018-10-21T10:39:03.567Z,12.40
2018-10-21T10:40:10.470Z,11.50
2018-10-21T10:41:17.643Z,15.00
2018-10-21T10:42:24.287Z,10.60
2018-10-21T10:43:31.388Z,14.70
2018-10-21T10:44:38.164Z,10.80
2018-10-21T10:45:44.913Z,13.00
2018-10-21T10:46:51.905Z,12.40
2018-10-21T10:47:58.825Z,13.10
2018-10-21T10:49:05.759Z,11.50
2018-10-21T10:50:12.759Z,9.00
2018-10-21T10:51:19.662Z,12.90
2018-10-21T10:52:26.205Z,11.70
2018-10-21T10:53:32.950Z,9.90
2018-10-21T10:54:39.706Z,15.10
2018-10-21T10:55:46.419Z,11.40
2018-10-21T10:56:54.273Z,13.60
2018-10-21T10:58:00.599Z,12.20
2018-10-21T10:59:07.756Z,15.60
2018-10-21T11:00:14.474Z,13.50
2018-10-21T11:01:22.173Z,13.90
2018-10-21T11:02:28.792Z,11.70
2018-10-21T11:03:35.593Z,12.90
2018-10-21T11:04:45.960Z,11.00
2018-10-21T11:05:49.302Z,11.30
2018-10-21T11:06:56.416Z,10.10
2018-10-21T11:08:02.866Z,14.50
2018-10-21T11:09:09.749Z,10.70
2018-10-21T11:10:16.724Z,9.40
2018-10-21T11:11:23.537Z,11.30
2018-10-21T11:12:30.221Z,9.30
2018-10-21T11:13:37.638Z,11.30
2018-10-21T11:14:44.523Z,11.10
2018-10-21T11:15:51.293Z,11.70
2018-10-21T11:16:58.448Z,13.30
2018-10-21T11:18:05.176Z,9.60
2018-10-21T11:19:12.117Z,10.70
2018-10-21T11:20:18.922Z,11.00
2018-10-21T11:21:25.870Z,12.40
2018-10-21T11:22:32.723Z,11.20
2018-10-21T11:23:39.589Z,8.90
2018-10-21T11:24:46.518Z,11.50
2018-10-21T11:25:53.362Z,10.40
2018-10-21T11:27:00.623Z,12.50
2018-10-21T11:28:07.803Z,10.50
2018-10-21T11:29:14.768Z,9.80
2018-10-21T11:30:21.991Z,8.90
2018-10-21T11:31:28.994Z,11.50
2018-10-21T11:32:36.045Z,12.10
2018-10-21T11:33:43.109Z,9.80
2018-10-21T11:34:50.026Z,10.20
2018-10-21T11:35:56.529Z,13.10
2018-10-21T11:37:03.716Z,12.80
2018-10-21T11:38:10.835Z,10.40
2018-10-21T11:39:17.959Z,11.30
2018-10-21T11:40:24.486Z,12.90
2018-10-21T11:41:31.831Z,9.40
2018-10-21T11:42:38.793Z,9.40
2018-10-21T11:43:46.045Z,9.70
2018-10-21T11:44:52.689Z,12.30
2018-10-21T11:45:59.891Z,9.70
2018-10-21T11:47:06.955Z,10.50
2018-10-21T11:48:15.138Z,8.60
2018-10-21T11:49:20.450Z,11.20
2018-10-21T11:50:27.578Z,10.30
2018-10-21T11:51:34.679Z,10.40
2018-10-21T11:52:41.676Z,12.60
2018-10-21T11:53:48.174Z,10.60
2018-10-21T11:54:55.342Z,13.20
2018-10-21T11:56:02.571Z,11.50
2018-10-21T11:57:09.265Z,11.30
2018-10-21T11:58:16.112Z,10.40
2018-10-21T11:59:22.984Z,11.60
2018-10-21T12:00:29.680Z,11.10
2018-10-21T12:01:36.722Z,10.80
2018-10-21T12:02:43.211Z,10.10
2018-10-21T12:03:50.197Z,10.80
2018-10-21T12:04:56.947Z,13.40
2018-10-21T12:06:03.846Z,11.20
2018-10-21T12:07:11.345Z,10.30
2018-10-21T12:08:17.727Z,12.30
2018-10-21T12:09:24.798Z,13.60
2018-10-21T12:10:31.966Z,9.80
2018-10-21T12:11:38.786Z,9.00
2018-10-21T12:12:45.587Z,8.30
2018-10-21T12:13:52.561Z,9.90
2018-10-21T12:14:59.329Z,16.30
2018-10-21T12:16:06.787Z,9.10
2018-10-21T12:17:13.772Z,8.40
2018-10-21T12:18:20.953Z,10.70
2018-10-21T12:19:27.513Z,9.50
2018-10-21T12:20:34.260Z,9.10
2018-10-21T12:21:41.090Z,10.20
2018-10-21T12:22:47.955Z,8.90
2018-10-21T12:23:55.348Z,11.10
2018-10-21T12:25:02.265Z,9.90
2018-10-21T12:26:08.895Z,11.80
2018-10-21T12:27:15.779Z,10.20
2018-10-21T12:28:22.614Z,9.60
2018-10-21T12:29:29.198Z,8.60
2018-10-21T12:30:36.428Z,9.40
2018-10-21T12:31:44.260Z,11.30
2018-10-21T12:32:50.018Z,8.80
2018-10-21T12:33:57.114Z,12.30
2018-10-21T12:35:03.548Z,10.10
2018-10-21T12:36:10.423Z,12.50
2018-10-21T12:37:17.195Z,9.30
2018-10-21T12:38:24.772Z,11.40
2018-10-21T12:39:31.662Z,8.10
2018-10-21T12:40:38.510Z,8.70
2018-10-21T12:41:45.246Z,9.20
2018-10-21T12:42:52.257Z,8.60
2018-10-21T12:43:59.402Z,10.20
2018-10-21T12:45:05.859Z,11.10
2018-10-21T12:46:12.659Z,8.20
2018-10-21T12:47:19.282Z,10.20
2018-10-21T12:48:26.450Z,8.70
2018-10-21T12:49:33.254Z,8.40
2018-10-21T12:50:40.128Z,8.10
2018-10-21T12:51:46.730Z,9.20
2018-10-21T12:52:53.686Z,9.10
2018-10-21T12:54:00.524Z,7.30
2018-10-21T12:55:08.100Z,6.70
2018-10-21T12:56:14.206Z,9.00
2018-10-21T12:57:21.097Z,8.40
2018-10-21T12:58:27.949Z,9.90
2018-10-21T12:59:34.689Z,7.30
2018-10-21T13:00:41.355Z,9.40
2018-10-21T13:01:48.535Z,9.00
2018-10-21T13:02:55.316Z,9.70
2018-10-21T13:04:01.917Z,7.60
2018-10-21T13:05:08.709Z,7.30
2018-10-21T13:06:15.302Z,8.00
2018-10-21T13:07:22.571Z,7.40
2018-10-21T13:08:30.692Z,7.80
2018-10-21T13:09:36.509Z,6.80
2018-10-21T13:10:44.594Z,9.30
2018-10-21T13:11:50.761Z,8.80
2018-10-21T13:12:57.546Z,7.10
2018-10-21T13:14:03.666Z,12.10
2018-10-21T13:15:10.838Z,8.30
2018-10-21T13:16:18.210Z,7.60
2018-10-21T13:17:24.866Z,9.50
2018-10-21T13:18:31.928Z,10.70
2018-10-21T13:19:39.316Z,10.80
2018-10-21T13:20:46.213Z,7.70
2018-10-21T13:21:54.028Z,9.00
2018-10-21T13:23:00.265Z,7.50
2018-10-21T13:24:07.098Z,10.00
2018-10-21T13:25:14.166Z,9.70
2018-10-21T13:26:21.354Z,8.50
2018-10-21T13:27:28.226Z,7.80
2018-10-21T13:28:35.528Z,8.00
2018-10-21T13:29:42.376Z,10.30
2018-10-21T13:30:49.487Z,6.40
2018-10-21T13:31:56.006Z,7.60
2018-10-21T13:33:03.199Z,8.30
2018-10-21T13:34:10.038Z,6.90
2018-10-21T13:35:16.758Z,7.90
2018-10-21T13:36:23.892Z,7.20
2018-10-21T13:37:30.503Z,8.90
2018-10-21T13:38:37.656Z,6.80
2018-10-21T13:39:44.530Z,6.10
2018-10-21T13:40:51.974Z,7.70
2018-10-21T13:41:58.855Z,7.30
2018-10-21T13:43:05.733Z,6.50
2018-10-21T13:44:12.587Z,7.50
2018-10-21T13:45:19.133Z,6.30
2018-10-21T13:46:26.334Z,6.70
2018-10-21T13:47:32.938Z,7.20
2018-10-21T13:48:40.263Z,6.40
2018-10-21T13:49:46.923Z,5.10
2018-10-21T13:50:54.118Z,7.30
2018-10-21T13:52:01.269Z,5.90
2018-10-21T13:53:07.969Z,10.00
2018-10-21T13:54:14.635Z,6.00
2018-10-21T13:55:21.862Z,6.60
2018-10-21T13:56:28.626Z,6.30
2018-10-21T13:57:35.630Z,5.40
2018-10-21T13:58:43.475Z,6.20
2018-10-21T13:59:49.558Z,10.00
2018-10-21T14:00:56.237Z,5.70
2018-10-21T14:02:02.939Z,5.60
2018-10-21T14:03:09.744Z,7.40
2018-10-21T14:04:16.928Z,5.70
2018-10-21T14:05:23.356Z,7.70
2018-10-21T14:06:30.062Z,5.80
2018-10-21T14:07:36.883Z,5.80
2018-10-21T14:08:43.545Z,6.30
2018-10-21T14:09:50.863Z,6.20
2018-10-21T14:10:57.725Z,6.20
2018-10-21T14:12:04.458Z,7.80
2018-10-21T14:13:11.268Z,5.90
2018-10-21T14:14:18.025Z,6.40
2018-10-21T14:15:24.898Z,5.40
2018-10-21T14:16:31.702Z,5.70
2018-10-21T14:17:38.729Z,7.00
2018-10-21T14:18:45.554Z,6.70
2018-10-21T14:19:52.207Z,6.60
2018-10-21T14:20:58.886Z,5.90
2018-10-21T14:22:06.120Z,5.50
2018-10-21T14:23:12.846Z,5.70
2018-10-21T14:24:19.737Z,5.50
2018-10-21T14:25:26.485Z,4.50
2018-10-21T14:26:33.230Z,4.30
2018-10-21T14:27:40.058Z,7.80
2018-10-21T14:28:46.661Z,5.90